createdAt,value
2019-04-27T00:01:49.914Z,100162.86
2019-04-27T00:04:38.042Z,100028.45
2019-04-27T00:07:21.212Z,100161.59
2019-04-27T00:09:55.869Z,100158.96
2019-04-27T00:12:26.542Z,100158.58
2019-04-27T00:14:56.124Z,100162.56
2019-04-27T00:17:56.904Z,100152.89
2019-04-27T00:20:53.595Z,100009.31
2019-04-27T00:23:23.902Z,100162.19
2019-04-27T00:25:53.026Z,100159.19
2019-04-27T00:28:23.014Z,100154.38
2019-04-27T00:30:53.108Z,100155.27
2019-04-27T00:33:23.746Z,100148.27
2019-04-27T00:36:03.940Z,100151.81
2019-04-27T00:38:57.240Z,100154.92
2019-04-27T00:41:26.368Z,100146.16
2019-04-27T00:43:55.499Z,100134.74
2019-04-27T00:46:24.597Z,100130.79
2019-04-27T00:48:53.912Z,100131.26
2019-04-27T00:51:23.223Z,100137.42
2019-04-27T00:53:54.871Z,100137.48
2019-04-27T00:56:31.824Z,100139.70
2019-04-27T00:59:18.376Z,100146.75
2019-04-27T01:02:03.766Z,100131.82
2019-04-27T01:04:34.007Z,100127.00
2019-04-27T01:07:04.039Z,100117.38
2019-04-27T01:09:33.876Z,100113.42
2019-04-27T01:12:03.678Z,100117.81
2019-04-27T01:14:34.299Z,100115.63
2019-04-27T01:17:03.489Z,100110.34
2019-04-27T01:19:32.599Z,100106.39
2019-04-27T01:22:01.770Z,100098.92
2019-04-27T01:24:30.924Z,100096.30
2019-04-27T01:27:19.092Z,100091.91
2019-04-27T01:29:49.993Z,100094.13
2019-04-27T01:32:20.782Z,100084.92
2019-04-27T01:34:50.000Z,100083.67
2019-04-27T01:37:19.720Z,100081.05
2019-04-27T01:39:50.459Z,100006.67
2019-04-27T01:42:19.699Z,100081.59
2019-04-27T01:44:49.600Z,100086.89
2019-04-27T01:47:19.817Z,100089.53
2019-04-27T01:49:49.546Z,100089.98
2019-04-27T01:52:19.426Z,100088.66
2019-04-27T01:54:49.549Z,100089.98
2019-04-27T01:57:19.425Z,100088.70
2019-04-27T01:59:49.020Z,100093.55
2019-04-27T02:02:39.926Z,100089.17
2019-04-27T02:05:26.818Z,100088.78
2019-04-27T02:07:55.962Z,100099.77
2019-04-27T02:10:25.106Z,100098.02
2019-04-27T02:12:54.246Z,100097.58
2019-04-27T02:15:23.375Z,100087.03
2019-04-27T02:17:52.513Z,100080.45
2019-04-27T02:20:21.659Z,100078.69
2019-04-27T02:22:50.849Z,100076.50
2019-04-27T02:25:21.112Z,100077.37
2019-04-27T02:27:54.102Z,100079.12
2019-04-27T02:30:41.087Z,100079.57
2019-04-27T02:33:30.233Z,100073.88
2019-04-27T02:36:00.368Z,100073.00
2019-04-27T02:38:30.521Z,100073.88
2019-04-27T02:41:02.485Z,100073.92
2019-04-27T02:43:39.979Z,100074.80
2019-04-27T02:46:09.690Z,100071.73
2019-04-27T02:48:52.994Z,100064.27
2019-04-27T02:51:11.681Z,100066.47
2019-04-27T02:54:00.515Z,100069.10
2019-04-27T02:56:30.504Z,100070.42
2019-04-27T02:58:59.971Z,100070.86
2019-04-27T03:01:31.532Z,100065.59
2019-04-27T03:04:00.740Z,100068.67
2019-04-27T03:06:30.315Z,100066.92
2019-04-27T03:09:00.438Z,100060.34
2019-04-27T03:11:31.434Z,100057.30
2019-04-27T03:14:32.433Z,100052.91
2019-04-27T03:17:22.787Z,100048.97
2019-04-27T03:19:56.921Z,100048.96
2019-04-27T03:22:33.837Z,100049.80
2019-04-27T03:25:21.960Z,100047.17
2019-04-27T03:27:52.730Z,100038.44
2019-04-27T03:30:23.472Z,100036.69
2019-04-27T03:32:56.603Z,100037.56
2019-04-27T03:35:23.728Z,100038.48
2019-04-27T03:37:52.866Z,100023.57
2019-04-27T03:40:22.027Z,100029.27
2019-04-27T03:42:52.801Z,100028.80
2019-04-27T03:45:21.959Z,100029.23
2019-04-27T03:47:51.091Z,100029.67
2019-04-27T03:50:25.802Z,100031.43
2019-04-27T03:53:29.820Z,100020.91
2019-04-27T03:56:16.285Z,100016.55
2019-04-27T03:58:49.815Z,100014.77
2019-04-27T04:01:20.338Z,100014.33
2019-04-27T04:03:50.227Z,100011.26
2019-04-27T04:06:19.683Z,100013.05
2019-04-27T04:08:50.599Z,100012.17
2019-04-27T04:11:36.080Z,100009.54
2019-04-27T04:14:10.129Z,100010.41
2019-04-27T04:16:44.373Z,100017.87
2019-04-27T04:19:14.249Z,100013.05
2019-04-27T04:21:43.378Z,100023.59
2019-04-27T04:24:12.627Z,100025.34
2019-04-27T04:26:41.745Z,100031.47
2019-04-27T04:29:10.911Z,100029.71
2019-04-27T04:31:40.651Z,100031.05
2019-04-27T04:34:12.063Z,100029.71
2019-04-27T04:36:42.476Z,100035.88
2019-04-27T04:39:12.526Z,100031.92
2019-04-27T04:41:53.755Z,100029.30
2019-04-27T04:44:40.346Z,100032.38
2019-04-27T04:47:30.612Z,100034.09
2019-04-27T04:50:11.136Z,100039.80
2019-04-27T04:52:31.232Z,100038.92
2019-04-27T04:55:02.739Z,100044.63
2019-04-27T04:57:31.362Z,100046.81
2019-04-27T05:00:00.594Z,100045.94
2019-04-27T05:02:29.927Z,100047.25
2019-04-27T05:04:59.154Z,100056.91
2019-04-27T05:07:29.753Z,100039.38
2019-04-27T05:09:58.913Z,100039.38
2019-04-27T05:12:28.752Z,100041.57
2019-04-27T05:14:59.059Z,100047.67
2019-04-27T05:17:29.650Z,100043.73
2019-04-27T05:19:59.134Z,100038.91
2019-04-27T05:22:29.618Z,100048.12
2019-04-27T05:25:01.869Z,100045.48
2019-04-27T05:27:31.739Z,100041.98
2019-04-27T05:30:01.557Z,100039.77
2019-04-27T05:32:30.751Z,100041.08
2019-04-27T05:34:59.917Z,100039.33
2019-04-27T05:37:31.639Z,100038.48
2019-04-27T05:39:59.917Z,100037.13
2019-04-27T05:42:29.053Z,100038.88
2019-04-27T05:45:19.989Z,100039.31
2019-04-27T05:47:54.881Z,100036.64
2019-04-27T05:50:35.523Z,100031.36
2019-04-27T05:52:54.823Z,100031.34
2019-04-27T05:55:23.974Z,100030.86
2019-04-27T05:57:53.234Z,100030.40
2019-04-27T06:00:22.793Z,100022.03
2019-04-27T06:02:52.255Z,100019.34
2019-04-27T06:05:22.930Z,100021.95
2019-04-27T06:07:52.193Z,100021.45
2019-04-27T06:10:21.339Z,100022.31
2019-04-27T06:12:50.468Z,100023.14
2019-04-27T06:15:19.909Z,100019.57
2019-04-27T06:17:49.176Z,100013.40
2019-04-27T06:20:18.838Z,100012.48
2019-04-27T06:22:48.878Z,100013.72
2019-04-27T06:25:21.194Z,100010.16
2019-04-27T06:27:49.580Z,100009.67
2019-04-27T06:30:19.359Z,100008.66
2019-04-27T06:32:49.488Z,100007.29
2019-04-27T06:35:18.723Z,100001.44
2019-04-27T06:37:49.253Z,100001.42
2019-04-27T06:40:18.831Z,99989.06
2019-04-27T06:42:48.673Z,99988.58
2019-04-27T06:45:19.567Z,99986.77
2019-04-27T06:47:51.056Z,99982.74
2019-04-27T06:50:19.765Z,99980.36
2019-04-27T06:52:49.161Z,99975.86
2019-04-27T06:55:18.836Z,99965.61
2019-04-27T06:57:49.044Z,99964.70
2019-04-27T07:00:19.022Z,99969.84
2019-04-27T07:02:49.238Z,99966.23
2019-04-27T07:05:20.196Z,99965.25
2019-04-27T07:07:49.488Z,99962.42
2019-04-27T07:10:18.809Z,99960.93
2019-04-27T07:12:49.043Z,99952.79
2019-04-27T07:15:20.485Z,99949.53
2019-04-27T07:17:49.718Z,99949.64
2019-04-27T07:20:18.983Z,99953.04
2019-04-27T07:22:49.651Z,99943.96
2019-04-27T07:25:19.286Z,99940.45
2019-04-27T07:27:49.363Z,99749.13
2019-04-27T07:30:19.685Z,99940.89
2019-04-27T07:32:49.008Z,99938.44
2019-04-27T07:35:19.641Z,99930.84
2019-04-27T07:37:48.999Z,99915.96
2019-04-27T07:40:18.788Z,99913.31
2019-04-27T07:42:51.275Z,99913.31
2019-04-27T07:45:29.499Z,99913.23
2019-04-27T07:47:59.176Z,99908.29
2019-04-27T07:50:29.045Z,99906.72
2019-04-27T07:52:58.774Z,99895.55
2019-04-27T07:55:28.805Z,99904.27
2019-04-27T07:57:59.706Z,99900.48
2019-04-27T08:00:29.048Z,99896.99
2019-04-27T08:02:58.637Z,99901.42
2019-04-27T08:05:29.164Z,99887.22
2019-04-27T08:07:59.993Z,99890.08
2019-04-27T08:10:29.365Z,99895.53
2019-04-27T08:12:59.733Z,99897.02
2019-04-27T08:15:29.201Z,99897.37
2019-04-27T08:17:59.177Z,99890.41
2019-04-27T08:20:29.396Z,99891.11
2019-04-27T08:22:59.844Z,99892.13
2019-04-27T08:25:30.763Z,99896.33
2019-04-27T08:28:13.127Z,99900.42
2019-04-27T08:31:01.429Z,99882.45
2019-04-27T08:33:30.535Z,99899.19
2019-04-27T08:35:59.681Z,99888.13
2019-04-27T08:38:29.003Z,99899.09
2019-04-27T08:40:59.212Z,99894.27
2019-04-27T08:43:29.041Z,99891.84
2019-04-27T08:45:58.773Z,99896.49
2019-04-27T08:48:34.637Z,99895.41
2019-04-27T08:51:00.249Z,99884.38
2019-04-27T08:53:29.909Z,99901.09
2019-04-27T08:55:59.375Z,99885.39
2019-04-27T08:58:28.737Z,99878.48
2019-04-27T09:00:59.066Z,99880.23
2019-04-27T09:03:29.425Z,99876.09
2019-04-27T09:05:59.139Z,99877.67
2019-04-27T09:08:49.355Z,99868.60
2019-04-27T09:11:26.457Z,99874.82
2019-04-27T09:14:14.577Z,99859.91
2019-04-27T09:17:11.913Z,99846.05
2019-04-27T09:20:03.015Z,99846.00
2019-04-27T09:22:32.309Z,99844.63
2019-04-27T09:25:01.461Z,99845.58
2019-04-27T09:27:30.579Z,99844.94
2019-04-27T09:29:59.754Z,99845.91
2019-04-27T09:32:29.074Z,99835.77
2019-04-27T09:34:58.220Z,99832.21
2019-04-27T09:37:27.562Z,99827.86
2019-04-27T09:39:56.727Z,99820.72
2019-04-27T09:42:26.820Z,99818.19
2019-04-27T09:44:56.087Z,99820.34
2019-04-27T09:47:26.645Z,99819.54
2019-04-27T09:49:56.570Z,99814.69
2019-04-27T09:52:26.928Z,99815.48
2019-04-27T09:54:56.544Z,99805.89
2019-04-27T09:57:26.004Z,99809.29
2019-04-27T09:59:56.440Z,99793.09
2019-04-27T10:02:26.945Z,99798.49
2019-04-27T10:04:56.560Z,99793.48
2019-04-27T10:07:26.808Z,99804.34
2019-04-27T10:09:56.148Z,99807.55
2019-04-27T10:12:26.105Z,99806.27
2019-04-27T10:14:55.993Z,99808.52
2019-04-27T10:17:25.383Z,99793.31
2019-04-27T10:19:54.500Z,99797.67
2019-04-27T10:22:39.371Z,99797.46
2019-04-27T10:24:54.474Z,99784.89
2019-04-27T10:27:23.596Z,99783.20
2019-04-27T10:29:52.737Z,99805.27
2019-04-27T10:32:21.872Z,99806.79
2019-04-27T10:34:50.992Z,99814.81
2019-04-27T10:37:20.128Z,99818.11
2019-04-27T10:39:49.525Z,99819.25
2019-04-27T10:42:18.647Z,99825.66
2019-04-27T10:44:47.810Z,99830.91
2019-04-27T10:47:17.243Z,99832.73
2019-04-27T10:49:48.416Z,99826.14
2019-04-27T10:52:17.238Z,99827.02
2019-04-27T10:54:46.541Z,99819.95
2019-04-27T10:57:15.876Z,99821.29
2019-04-27T10:59:46.138Z,99819.50
2019-04-27T11:02:15.457Z,99825.36
2019-04-27T11:05:06.856Z,99819.91
2019-04-27T11:07:38.101Z,99822.14
2019-04-27T11:10:08.337Z,99824.56
2019-04-27T11:12:37.510Z,99816.43
2019-04-27T11:15:08.230Z,99813.98
2019-04-27T11:17:38.803Z,99811.36
2019-04-27T11:20:09.147Z,99814.50
2019-04-27T11:22:38.281Z,99814.56
2019-04-27T11:25:08.344Z,99808.57
2019-04-27T11:27:38.886Z,99810.13
2019-04-27T11:30:09.376Z,99803.63
2019-04-27T11:32:38.515Z,99816.02
2019-04-27T11:35:28.405Z,99814.27
2019-04-27T11:37:58.513Z,99805.69
2019-04-27T11:40:27.737Z,99800.95
2019-04-27T11:42:57.316Z,99805.39
2019-04-27T11:45:28.513Z,99797.03
2019-04-27T11:47:57.493Z,99807.05
2019-04-27T11:50:26.667Z,99811.91
2019-04-27T11:52:56.630Z,99821.20
2019-04-27T11:55:27.364Z,99814.81
2019-04-27T11:57:56.707Z,99822.98
2019-04-27T12:00:27.653Z,99824.80
2019-04-27T12:02:56.929Z,99818.73
2019-04-27T12:05:26.191Z,99826.45
2019-04-27T12:07:56.122Z,99822.34
2019-04-27T12:10:26.271Z,99837.70
2019-04-27T12:12:56.232Z,99835.34
2019-04-27T12:15:26.415Z,99837.05
2019-04-27T12:17:56.289Z,99829.00
2019-04-27T12:20:25.933Z,99833.73
2019-04-27T12:22:55.290Z,99831.16
2019-04-27T12:25:24.413Z,99835.11
2019-04-27T12:28:11.231Z,99840.84
2019-04-27T12:31:04.372Z,99831.95
2019-04-27T12:33:33.537Z,99827.34
2019-04-27T12:36:02.657Z,99830.33
2019-04-27T12:38:31.815Z,99826.61
2019-04-27T12:41:01.062Z,99822.03
2019-04-27T12:43:30.196Z,99817.92
2019-04-27T12:45:59.447Z,99816.92
2019-04-27T12:48:28.615Z,99816.84
2019-04-27T12:50:57.736Z,99807.86
2019-04-27T12:53:48.244Z,99802.78
2019-04-27T12:56:40.579Z,99811.49
2019-04-27T12:59:16.218Z,99797.06
2019-04-27T13:01:46.224Z,99800.78
2019-04-27T13:04:15.527Z,99799.86
2019-04-27T13:06:44.674Z,99794.82
2019-04-27T13:09:15.428Z,99798.61
2019-04-27T13:11:45.923Z,99799.47
2019-04-27T13:14:16.356Z,99796.20
2019-04-27T13:16:45.734Z,99790.52
2019-04-27T13:19:16.581Z,99785.30
2019-04-27T13:21:46.928Z,99797.05
2019-04-27T13:24:16.241Z,99794.77
2019-04-27T13:26:45.708Z,99796.79
2019-04-27T13:29:16.650Z,99801.44
2019-04-27T13:31:45.954Z,99802.38
2019-04-27T13:34:15.873Z,99800.06
2019-04-27T13:36:45.700Z,99787.83
2019-04-27T13:39:18.138Z,99794.74
2019-04-27T13:41:47.280Z,99781.97
2019-04-27T13:44:16.421Z,99781.31
2019-04-27T13:47:02.988Z,99785.25
2019-04-27T13:49:51.924Z,99771.79
2019-04-27T13:52:23.609Z,99777.12
2019-04-27T13:54:52.784Z,99770.12
2019-04-27T13:57:21.961Z,99765.69
2019-04-27T13:59:51.600Z,99767.81
2019-04-27T14:02:21.512Z,99763.31
2019-04-27T14:04:51.873Z,99769.48
2019-04-27T14:07:20.996Z,99765.92
2019-04-27T14:09:50.508Z,99800.08
2019-04-27T14:12:21.419Z,99807.53
2019-04-27T14:14:51.078Z,99806.77
2019-04-27T14:17:20.315Z,99811.39
2019-04-27T14:19:49.450Z,99820.20
2019-04-27T14:22:18.594Z,99816.45
2019-04-27T14:24:48.706Z,99712.14
2019-04-27T14:27:19.397Z,99834.47
2019-04-27T14:29:49.028Z,99837.30
2019-04-27T14:32:18.795Z,99845.72
2019-04-27T14:34:50.123Z,99845.49
2019-04-27T14:37:18.832Z,99846.88
2019-04-27T14:39:48.368Z,99850.84
2019-04-27T14:42:19.145Z,99849.52
2019-04-27T14:44:48.981Z,99854.81
2019-04-27T14:47:18.792Z,99861.95
2019-04-27T14:49:49.063Z,99858.94
2019-04-27T14:52:18.851Z,99862.06
2019-04-27T14:54:50.532Z,99866.88
2019-04-27T14:57:20.389Z,99862.86
2019-04-27T14:59:50.006Z,99869.80
2019-04-27T15:02:19.182Z,99876.41
2019-04-27T15:04:48.542Z,99871.56
2019-04-27T15:07:17.717Z,99872.50
2019-04-27T15:09:49.695Z,99880.06
2019-04-27T15:12:17.743Z,99874.40
2019-04-27T15:14:46.884Z,99708.84
2019-04-27T15:17:17.718Z,99879.52
2019-04-27T15:19:53.756Z,99879.56
2019-04-27T15:22:27.457Z,99886.58
2019-04-27T15:25:09.311Z,99890.60
2019-04-27T15:27:37.434Z,99891.18
2019-04-27T15:30:10.813Z,99888.75
2019-04-27T15:32:54.508Z,99886.36
2019-04-27T15:35:35.582Z,99874.97
2019-04-27T15:38:13.915Z,99871.09
2019-04-27T15:41:12.775Z,99870.56
2019-04-27T15:43:43.117Z,99872.31
2019-04-27T15:46:12.278Z,99880.58
2019-04-27T15:48:41.417Z,99885.78
2019-04-27T15:51:17.276Z,99878.61
2019-04-27T15:53:45.590Z,99889.10
2019-04-27T15:56:12.372Z,99892.55
2019-04-27T15:58:41.479Z,99892.50
2019-04-27T16:01:11.920Z,99896.47
2019-04-27T16:03:42.325Z,99895.59
2019-04-27T16:06:11.946Z,99905.73
2019-04-27T16:08:45.370Z,99903.11
2019-04-27T16:11:16.724Z,99900.48
2019-04-27T16:13:42.972Z,99897.89
2019-04-27T16:16:12.099Z,99893.92
2019-04-27T16:18:41.221Z,99893.45
2019-04-27T16:21:10.998Z,99885.13
2019-04-27T16:23:43.025Z,99880.02
2019-04-27T16:26:14.964Z,99873.05
2019-04-27T16:28:43.038Z,99870.00
2019-04-27T16:31:12.937Z,99873.05
2019-04-27T16:33:42.207Z,99892.86
2019-04-27T16:36:11.342Z,99897.77
2019-04-27T16:39:03.626Z,99916.14
2019-04-27T16:41:33.066Z,99905.17
2019-04-27T16:44:02.281Z,99916.56
2019-04-27T16:46:34.938Z,99921.81
2019-04-27T16:49:07.342Z,99930.08
2019-04-27T16:51:37.066Z,99937.07
2019-04-27T16:54:05.543Z,99930.48
2019-04-27T16:56:34.668Z,99935.77
2019-04-27T16:59:25.929Z,99945.42
2019-04-27T17:01:34.692Z,99954.22
2019-04-27T17:04:06.481Z,99954.66
2019-04-27T17:06:39.144Z,99964.80
2019-04-27T17:09:11.339Z,99959.09
2019-04-27T17:11:38.818Z,99952.53
2019-04-27T17:14:19.971Z,99949.88
2019-04-27T17:16:54.439Z,99937.52
2019-04-27T17:19:43.852Z,99933.98
2019-04-27T17:22:14.648Z,99932.23
2019-04-27T17:24:47.411Z,99930.52
2019-04-27T17:27:23.518Z,99935.86
2019-04-27T17:29:50.077Z,99946.50
2019-04-27T17:32:43.378Z,99954.56
2019-04-27T17:35:14.852Z,99959.52
2019-04-27T17:37:43.496Z,99943.25
2019-04-27T17:40:15.300Z,99943.25
2019-04-27T17:42:43.613Z,99957.02
2019-04-27T17:45:13.072Z,99958.46
2019-04-27T17:47:42.333Z,99959.41
2019-04-27T17:50:11.672Z,99966.01
2019-04-27T17:52:40.821Z,99977.47
2019-04-27T17:55:09.963Z,99981.53
2019-04-27T17:57:39.237Z,99977.65
2019-04-27T18:00:09.993Z,99966.20
2019-04-27T18:02:42.351Z,99967.00
2019-04-27T18:05:13.814Z,99972.23
2019-04-27T18:07:44.267Z,99973.95
2019-04-27T18:10:13.342Z,99973.54
2019-04-27T18:12:44.579Z,99970.88
2019-04-27T18:15:14.610Z,99972.17
2019-04-27T18:17:50.062Z,99978.75
2019-04-27T18:20:20.295Z,99985.36
2019-04-27T18:22:53.225Z,99987.59
2019-04-27T18:25:22.357Z,99999.92
2019-04-27T18:28:14.882Z,99997.73
2019-04-27T18:31:02.569Z,100000.36
2019-04-27T18:33:32.727Z,99995.07
2019-04-27T18:36:05.609Z,100000.36
2019-04-27T18:38:35.323Z,100004.80
2019-04-27T18:41:08.144Z,100012.78
2019-04-27T18:43:35.372Z,100022.55
2019-04-27T18:46:04.515Z,100024.77
2019-04-27T18:48:54.003Z,100018.63
2019-04-27T18:51:31.416Z,100017.77
2019-04-27T18:54:03.581Z,100029.23
2019-04-27T18:56:33.437Z,100034.53
2019-04-27T18:59:02.469Z,100035.45
2019-04-27T19:01:31.602Z,100032.83
2019-04-27T19:04:00.720Z,100041.25
2019-04-27T19:06:29.893Z,100040.84
2019-04-27T19:08:59.184Z,100043.05
2019-04-27T19:11:29.084Z,100050.98
2019-04-27T19:13:59.007Z,99947.29
2019-04-27T19:16:29.223Z,100047.95
2019-04-27T19:18:58.563Z,100050.22
2019-04-27T19:21:28.873Z,100056.84
2019-04-27T19:23:58.575Z,100060.38
2019-04-27T19:26:39.095Z,100066.97
2019-04-27T19:29:14.816Z,100066.97
2019-04-27T19:31:53.841Z,100072.70
2019-04-27T19:34:23.003Z,100069.20
2019-04-27T19:36:52.229Z,100069.20
2019-04-27T19:39:21.350Z,100059.97
2019-04-27T19:41:57.987Z,100059.55
2019-04-27T19:44:21.390Z,100057.79
2019-04-27T19:46:50.529Z,100052.96
2019-04-27T19:49:19.659Z,100056.48
2019-04-27T19:51:48.827Z,100048.62
2019-04-27T19:54:17.963Z,100052.58
2019-04-27T19:56:47.105Z,100055.69
2019-04-27T19:59:21.507Z,100063.17
2019-04-27T20:01:51.673Z,100065.86
2019-04-27T20:04:39.758Z,100068.14
2019-04-27T20:07:10.597Z,100070.80
2019-04-27T20:10:00.023Z,100076.55
2019-04-27T20:12:31.156Z,100048.55
2019-04-27T20:15:02.083Z,100018.38
2019-04-27T20:17:32.199Z,100086.30
2019-04-27T20:20:02.082Z,100088.05
2019-04-27T20:22:31.351Z,100092.02
2019-04-27T20:25:01.865Z,100099.05
2019-04-27T20:27:45.073Z,100093.33
2019-04-27T20:30:03.171Z,100089.81
2019-04-27T20:32:32.561Z,100092.89
2019-04-27T20:35:01.863Z,100100.38
2019-04-27T20:37:31.448Z,100105.21
2019-04-27T20:40:01.692Z,100095.11
2019-04-27T20:42:31.563Z,100102.17
2019-04-27T20:45:01.952Z,100111.84
2019-04-27T20:47:31.737Z,100064.14
2019-04-27T20:50:00.902Z,100121.98
2019-04-27T20:52:36.202Z,100119.81
2019-04-27T20:55:05.962Z,100126.85
2019-04-27T20:57:35.077Z,100125.98
2019-04-27T21:00:04.723Z,100121.59
2019-04-27T21:02:43.013Z,100120.28
2019-04-27T21:05:37.176Z,100129.11
2019-04-27T21:08:07.264Z,100130.00
2019-04-27T21:10:36.448Z,100131.31
2019-04-27T21:13:05.620Z,100129.99
2019-04-27T21:15:34.742Z,100133.50
2019-04-27T21:18:03.870Z,100138.78
2019-04-27T21:20:33.290Z,100137.45
2019-04-27T21:23:02.556Z,100138.78
2019-04-27T21:25:33.561Z,100143.19
2019-04-27T21:28:14.934Z,100147.58
2019-04-27T21:30:33.412Z,100153.72
2019-04-27T21:33:02.555Z,100156.35
2019-04-27T21:35:31.658Z,100150.64
2019-04-27T21:38:03.113Z,100152.41
2019-04-27T21:40:31.766Z,100155.03
2019-04-27T21:43:01.229Z,100150.59
2019-04-27T21:45:31.761Z,100163.77
2019-04-27T21:48:01.034Z,100162.05
2019-04-27T21:50:31.507Z,100160.30
2019-04-27T21:53:06.448Z,100160.75
2019-04-27T21:55:35.986Z,100165.58
2019-04-27T21:58:05.347Z,100164.27
2019-04-27T22:00:53.562Z,100164.27
2019-04-27T22:03:27.481Z,100167.34
2019-04-27T22:05:56.624Z,100168.66
2019-04-27T22:08:25.788Z,100171.73
2019-04-27T22:10:54.924Z,100162.95
2019-04-27T22:13:24.052Z,100167.78
2019-04-27T22:15:53.191Z,100162.95
2019-04-27T22:18:22.284Z,100166.02
2019-04-27T22:20:51.419Z,100168.22
2019-04-27T22:23:26.364Z,100172.21
2019-04-27T22:25:55.506Z,100175.72
2019-04-27T22:28:24.671Z,100175.28
2019-04-27T22:30:53.824Z,100175.28
2019-04-27T22:33:22.964Z,100181.39
2019-04-27T22:35:52.213Z,100180.96
2019-04-27T22:38:21.347Z,100179.23
2019-04-27T22:41:24.881Z,100179.67
2019-04-27T22:44:28.202Z,100180.08
2019-04-27T22:46:57.563Z,100183.59
2019-04-27T22:49:26.704Z,100192.81
2019-04-27T22:51:55.876Z,100195.05
2019-04-27T22:54:25.017Z,100199.00
2019-04-27T22:56:55.935Z,100202.92
2019-04-27T22:59:33.883Z,100206.87
2019-04-27T23:02:21.739Z,100209.09
2019-04-27T23:04:56.566Z,100207.78
2019-04-27T23:07:24.899Z,100203.39
2019-04-27T23:09:54.040Z,100208.22
2019-04-27T23:12:23.190Z,100210.82
2019-04-27T23:14:52.335Z,100213.02
2019-04-27T23:17:41.596Z,100213.45
2019-04-27T23:20:11.601Z,100208.62
2019-04-27T23:22:40.705Z,100213.02
2019-04-27T23:25:11.237Z,100212.58
2019-04-27T23:27:41.005Z,100212.58
2019-04-27T23:30:11.364Z,100211.26
2019-04-27T23:32:43.583Z,100208.62
2019-04-27T23:35:12.709Z,100205.98
2019-04-27T23:37:41.833Z,100216.53
2019-04-27T23:40:11.367Z,100218.28
2019-04-27T23:42:41.677Z,100220.92
2019-04-27T23:45:10.892Z,100217.84
2019-04-27T23:47:40.017Z,100215.66
2019-04-27T23:50:10.951Z,100218.28
2019-04-27T23:52:57.948Z,100217.84
2019-04-27T23:55:30.983Z,100217.41
2019-04-27T23:58:00.149Z,100220.92
